createdAt,value
2023-02-19T00:02:29.649Z,6.50
2023-02-19T00:05:31.259Z,6.55
2023-02-19T00:08:34.261Z,5.72
2023-02-19T00:11:35.992Z,5.22
2023-02-19T00:14:37.820Z,5.05
2023-02-19T00:17:39.477Z,4.18
2023-02-19T00:20:41.131Z,4.00
2023-02-19T00:23:43.017Z,3.45
2023-02-19T00:26:45.715Z,3.17
2023-02-19T00:29:47.347Z,2.40
2023-02-19T00:32:52.148Z,2.12
2023-02-19T00:35:53.779Z,2.00
2023-02-19T00:38:55.535Z,2.15
2023-02-19T00:41:57.238Z,1.83
2023-02-19T00:44:58.887Z,1.80
2023-02-19T00:48:00.563Z,1.60
2023-02-19T00:51:02.207Z,2.05
2023-02-19T00:54:05.090Z,1.85
2023-02-19T00:57:06.742Z,2.17
2023-02-19T01:00:09.189Z,1.40
2023-02-19T01:03:10.876Z,1.40
2023-02-19T01:06:14.859Z,1.85
2023-02-19T01:09:16.544Z,1.67
2023-02-19T01:12:18.169Z,1.17
2023-02-19T01:15:19.835Z,1.73
2023-02-19T01:18:21.465Z,1.50
2023-02-19T01:21:25.731Z,1.55
2023-02-19T01:24:27.388Z,1.55
2023-02-19T01:27:29.051Z,1.45
2023-02-19T01:30:30.840Z,1.50
2023-02-19T01:33:33.570Z,1.70
2023-02-19T01:36:35.331Z,1.48
2023-02-19T01:39:36.996Z,1.58
2023-02-19T01:42:43.701Z,1.50
2023-02-19T01:45:46.364Z,1.87
2023-02-19T01:48:48.017Z,1.40
2023-02-19T01:51:57.088Z,1.40
2023-02-19T01:55:00.647Z,1.30
2023-02-19T01:58:03.496Z,1.30
2023-02-19T02:01:08.441Z,1.30
2023-02-19T02:04:13.621Z,1.50
2023-02-19T02:07:33.643Z,1.60
2023-02-19T02:10:35.389Z,1.30
2023-02-19T02:13:38.894Z,1.40
2023-02-19T02:16:49.222Z,1.20
2023-02-19T02:20:15.196Z,1.27
2023-02-19T02:23:28.972Z,1.20
2023-02-19T02:26:55.333Z,1.33
2023-02-19T02:30:03.163Z,1.42
2023-02-19T02:33:43.496Z,1.35
2023-02-19T02:36:49.920Z,1.30
2023-02-19T02:39:53.715Z,1.35
2023-02-19T02:42:58.520Z,1.50
2023-02-19T02:46:00.365Z,1.55
2023-02-19T02:49:19.475Z,1.42
2023-02-19T02:52:40.558Z,1.40
2023-02-19T02:55:47.293Z,1.90
2023-02-19T02:58:51.028Z,2.12
2023-02-19T03:02:14.275Z,2.03
2023-02-19T03:05:39.324Z,1.90
2023-02-19T03:08:50.879Z,2.00
2023-02-19T03:12:12.581Z,2.50
2023-02-19T03:15:35.766Z,2.85
2023-02-19T03:19:00.278Z,4.10
2023-02-19T03:22:10.327Z,4.15
2023-02-19T03:25:42.136Z,7.90
2023-02-19T03:29:05.984Z,5.62
2023-02-19T03:32:36.462Z,2.45
2023-02-19T03:36:00.792Z,2.17
2023-02-19T03:39:08.318Z,2.15
2023-02-19T03:45:44.077Z,2.15
2023-02-19T03:48:57.359Z,3.00
2023-02-19T03:52:11.836Z,2.28
2023-02-19T03:55:19.497Z,2.65
2023-02-19T03:58:29.045Z,2.55
2023-02-19T04:01:36.977Z,2.50
2023-02-19T04:04:45.748Z,2.40
2023-02-19T04:07:52.197Z,2.08
2023-02-19T04:10:55.369Z,1.92
2023-02-19T04:14:06.512Z,2.15
2023-02-19T04:17:20.075Z,2.10
2023-02-19T04:20:24.469Z,1.98
2023-02-19T04:23:30.400Z,2.30
2023-02-19T04:26:33.861Z,1.87
2023-02-19T04:29:36.663Z,2.12
2023-02-19T04:32:39.893Z,2.20
2023-02-19T04:35:41.733Z,2.30
2023-02-19T04:38:43.398Z,1.92
2023-02-19T04:41:45.122Z,2.30
2023-02-19T04:44:46.801Z,1.83
2023-02-19T04:47:48.483Z,2.15
2023-02-19T04:50:50.152Z,2.10
2023-02-19T04:53:51.876Z,2.28
2023-02-19T04:56:53.617Z,2.00
2023-02-19T04:59:55.317Z,1.98
2023-02-19T05:02:57.018Z,3.75
2023-02-19T05:06:02.729Z,2.40
2023-02-19T05:09:04.389Z,2.42
2023-02-19T05:12:06.256Z,2.95
2023-02-19T05:15:08.069Z,3.17
2023-02-19T05:18:09.743Z,2.65
2023-02-19T05:21:12.713Z,2.50
2023-02-19T05:24:14.728Z,2.35
2023-02-19T05:27:16.438Z,2.58
2023-02-19T05:30:18.200Z,2.72
2023-02-19T05:33:23.756Z,2.22
2023-02-19T05:36:25.403Z,2.40
2023-02-19T05:39:27.120Z,2.12
2023-02-19T05:42:28.810Z,1.85
2023-02-19T05:45:30.954Z,2.00
2023-02-19T05:48:33.722Z,1.80
2023-02-19T05:51:35.412Z,2.00
2023-02-19T05:54:37.063Z,1.92
2023-02-19T05:57:43.744Z,1.80
2023-02-19T06:00:45.558Z,1.80
2023-02-19T06:03:47.614Z,1.80
2023-02-19T06:06:49.448Z,1.87
2023-02-19T06:09:51.556Z,1.70
2023-02-19T06:12:53.745Z,1.50
2023-02-19T06:15:55.514Z,1.62
2023-02-19T06:18:57.185Z,2.12
2023-02-19T06:21:58.912Z,1.85
2023-02-19T06:25:00.555Z,1.90
2023-02-19T06:28:02.264Z,2.70
2023-02-19T06:31:05.362Z,1.62
2023-02-19T06:34:07.028Z,2.17
2023-02-19T06:37:08.746Z,2.05
2023-02-19T06:40:10.644Z,2.90
2023-02-19T06:43:12.349Z,5.47
2023-02-19T06:46:14.462Z,7.90
2023-02-19T06:49:16.794Z,10.73
2023-02-19T06:52:18.497Z,12.15
2023-02-19T06:55:20.129Z,14.18
2023-02-19T06:58:21.823Z,15.70
2023-02-19T07:01:24.458Z,16.37
2023-02-19T07:04:26.150Z,16.02
2023-02-19T07:07:27.841Z,16.80
2023-02-19T07:10:29.542Z,17.17
2023-02-19T07:13:31.289Z,18.12
2023-02-19T07:16:33.291Z,17.77
2023-02-19T07:19:34.958Z,17.48
2023-02-19T07:22:36.588Z,17.45
2023-02-19T07:25:38.970Z,17.10
2023-02-19T07:28:41.692Z,17.62
2023-02-19T07:31:43.439Z,17.95
2023-02-19T07:34:45.078Z,18.52
2023-02-19T07:37:46.738Z,18.52
2023-02-19T07:40:56.458Z,19.25
2023-02-19T07:43:58.201Z,19.20
2023-02-19T07:46:59.896Z,18.05
2023-02-19T07:50:01.609Z,17.65
2023-02-19T07:53:03.318Z,18.40
2023-02-19T07:56:07.050Z,18.80
2023-02-19T07:59:08.745Z,18.50
2023-02-19T08:02:38.971Z,18.23
2023-02-19T08:05:42.491Z,17.33
2023-02-19T08:08:44.147Z,15.50
2023-02-19T08:12:04.070Z,16.98
2023-02-19T08:15:05.809Z,17.17
2023-02-19T08:18:08.718Z,16.98
2023-02-19T08:21:10.922Z,16.37
2023-02-19T08:24:12.913Z,15.88
2023-02-19T08:27:14.551Z,16.05
2023-02-19T08:30:16.270Z,16.52
2023-02-19T08:33:20.906Z,16.15
2023-02-19T08:36:22.565Z,15.63
2023-02-19T08:39:24.352Z,14.77
2023-02-19T08:42:25.985Z,15.60
2023-02-19T08:45:27.651Z,14.87
2023-02-19T08:48:29.421Z,14.18
2023-02-19T08:51:31.115Z,15.18
2023-02-19T08:54:32.819Z,14.90
2023-02-19T08:57:40.102Z,14.45
2023-02-19T09:00:41.777Z,14.02
2023-02-19T09:03:43.812Z,13.90
2023-02-19T09:06:45.523Z,14.20
2023-02-19T09:09:47.197Z,13.20
2023-02-19T09:12:48.900Z,13.93
2023-02-19T09:15:50.623Z,13.30
2023-02-19T09:18:52.400Z,13.68
2023-02-19T09:21:54.196Z,13.43
2023-02-19T09:24:55.844Z,12.98
2023-02-19T09:27:57.627Z,12.95
2023-02-19T09:31:08.606Z,14.25
2023-02-19T09:34:11.841Z,13.93
2023-02-19T09:37:13.555Z,13.95
2023-02-19T09:40:21.462Z,13.80
2023-02-19T09:43:26.538Z,13.48
2023-02-19T09:46:30.877Z,14.48
2023-02-19T09:49:37.946Z,15.00
2023-02-19T09:52:42.916Z,14.55
2023-02-19T09:55:45.281Z,15.15
2023-02-19T09:58:50.444Z,15.68
2023-02-19T10:02:03.044Z,15.85
2023-02-19T10:05:13.670Z,15.80
2023-02-19T10:08:20.227Z,15.32
2023-02-19T10:11:25.533Z,15.07
2023-02-19T10:14:58.423Z,16.02
2023-02-19T10:18:04.466Z,16.55
2023-02-19T10:21:06.825Z,17.00
2023-02-19T10:24:14.966Z,16.50
2023-02-19T10:27:16.915Z,17.12
2023-02-19T10:30:25.728Z,16.27
2023-02-19T10:33:28.484Z,14.25
2023-02-19T10:36:37.343Z,15.23
2023-02-19T10:39:43.045Z,15.27
2023-02-19T10:42:47.697Z,14.45
2023-02-19T10:45:51.373Z,14.95
2023-02-19T10:48:57.216Z,13.52
2023-02-19T10:52:20.366Z,12.73
2023-02-19T10:55:31.749Z,12.75
2023-02-19T10:58:40.472Z,12.43
2023-02-19T11:02:01.672Z,10.88
2023-02-19T11:05:09.324Z,10.57
2023-02-19T11:08:22.097Z,10.77
2023-02-19T11:11:37.337Z,11.32
2023-02-19T11:14:43.272Z,10.43
2023-02-19T11:17:45.587Z,10.48
2023-02-19T11:20:57.493Z,9.90
2023-02-19T11:24:04.666Z,11.07
2023-02-19T11:27:17.552Z,11.18
2023-02-19T11:30:35.268Z,11.98
2023-02-19T11:33:44.784Z,11.93
2023-02-19T11:36:47.558Z,11.10
2023-02-19T11:39:51.553Z,12.40
2023-02-19T11:43:21.549Z,11.32
2023-02-19T11:46:55.456Z,11.45
2023-02-19T11:50:13.678Z,11.38
2023-02-19T11:53:29.019Z,11.48
2023-02-19T11:56:39.099Z,9.70
2023-02-19T12:00:12.886Z,9.93
2023-02-19T12:04:02.425Z,8.75
2023-02-19T12:07:27.054Z,9.02
2023-02-19T12:10:45.467Z,6.82
2023-02-19T12:14:07.244Z,5.20
2023-02-19T12:17:27.327Z,6.00
2023-02-19T12:20:44.148Z,5.65
2023-02-19T12:24:19.945Z,5.37
2023-02-19T12:27:40.623Z,5.57
2023-02-19T12:30:55.036Z,5.22
2023-02-19T12:34:18.508Z,4.95
2023-02-19T12:37:47.708Z,4.10
2023-02-19T12:41:04.191Z,2.80
2023-02-19T12:44:28.145Z,1.92
2023-02-19T12:47:37.234Z,2.50
2023-02-19T12:50:40.889Z,2.03
2023-02-19T12:53:51.244Z,1.40
2023-02-19T12:57:12.256Z,2.42
2023-02-19T13:00:31.558Z,2.67
2023-02-19T13:04:05.806Z,1.85
2023-02-19T13:07:16.252Z,1.52
2023-02-19T13:10:41.685Z,1.70
2023-02-19T13:14:00.143Z,1.30
2023-02-19T13:17:13.611Z,1.60
2023-02-19T13:20:23.892Z,1.52
2023-02-19T13:23:49.866Z,1.65
2023-02-19T13:27:13.362Z,1.85
2023-02-19T13:30:39.067Z,1.80
2023-02-19T13:33:47.515Z,1.70
2023-02-19T13:36:50.492Z,2.00
2023-02-19T13:39:54.963Z,1.60
2023-02-19T13:43:02.705Z,1.02
2023-02-19T13:46:13.231Z,1.67
2023-02-19T13:49:34.067Z,1.37
2023-02-19T13:52:40.565Z,1.42
2023-02-19T13:55:51.045Z,1.30
2023-02-19T13:58:58.214Z,1.67
2023-02-19T14:02:03.529Z,1.75
2023-02-19T14:05:14.609Z,1.98
2023-02-19T14:08:46.803Z,1.65
2023-02-19T14:11:49.291Z,1.98
2023-02-19T14:14:56.197Z,1.60
2023-02-19T14:17:59.033Z,1.98
2023-02-19T14:21:23.053Z,1.00
2023-02-19T14:24:26.040Z,1.12
2023-02-19T14:27:28.163Z,1.00
2023-02-19T14:30:33.290Z,1.10
2023-02-19T14:33:40.253Z,1.50
2023-02-19T14:36:50.462Z,0.90
2023-02-19T14:39:54.944Z,1.30
2023-02-19T14:43:01.140Z,0.90
2023-02-19T14:46:24.757Z,1.30
2023-02-19T14:49:51.302Z,1.48
2023-02-19T14:52:58.643Z,1.50
2023-02-19T14:59:30.168Z,1.10
2023-02-19T15:02:33.302Z,1.50
2023-02-19T15:05:38.101Z,1.50
2023-02-19T15:08:44.728Z,1.48
2023-02-19T15:11:47.815Z,1.50
2023-02-19T15:14:53.882Z,1.10
2023-02-19T15:17:59.481Z,0.93
2023-02-19T15:21:04.077Z,0.90
2023-02-19T15:24:07.960Z,1.48
2023-02-19T15:27:20.399Z,1.30
2023-02-19T15:30:29.986Z,1.80
2023-02-19T15:33:33.050Z,1.15
2023-02-19T15:36:38.648Z,1.30
2023-02-19T15:39:45.803Z,0.90
2023-02-19T15:42:48.660Z,1.00
2023-02-19T15:45:54.977Z,1.40
2023-02-19T15:49:20.010Z,1.42
2023-02-19T15:52:32.605Z,2.30
2023-02-19T15:55:49.996Z,1.20
2023-02-19T15:59:00.014Z,1.50
2023-02-19T16:02:04.234Z,0.60
2023-02-19T16:05:25.665Z,0.70
2023-02-19T16:08:37.235Z,0.70
2023-02-19T16:11:48.366Z,0.90
2023-02-19T16:14:54.145Z,1.20
2023-02-19T16:17:58.179Z,0.90
2023-02-19T16:21:04.676Z,0.90
2023-02-19T16:24:27.350Z,1.20
2023-02-19T16:27:42.547Z,1.85
2023-02-19T16:30:45.445Z,1.40
2023-02-19T16:33:49.270Z,0.98
2023-02-19T16:36:52.683Z,1.60
2023-02-19T16:40:33.986Z,1.00
2023-02-19T16:43:42.968Z,0.90
2023-02-19T16:46:45.793Z,0.80
2023-02-19T16:49:48.348Z,1.20
2023-02-19T16:52:54.013Z,1.40
2023-02-19T16:55:57.100Z,1.40
2023-02-19T16:59:00.005Z,1.45
2023-02-19T17:02:06.132Z,1.40
2023-02-19T17:05:10.163Z,1.27
2023-02-19T17:08:42.870Z,1.45
2023-02-19T17:11:45.358Z,1.10
2023-02-19T17:14:48.339Z,2.08
2023-02-19T17:17:50.668Z,1.90
2023-02-19T17:21:21.084Z,1.80
2023-02-19T17:24:25.049Z,1.87
2023-02-19T17:27:27.918Z,1.50
2023-02-19T17:30:32.539Z,1.62
2023-02-19T17:33:34.759Z,1.50
2023-02-19T17:36:39.151Z,2.60
2023-02-19T17:39:41.967Z,3.30
2023-02-19T17:42:47.080Z,1.62
2023-02-19T17:45:50.018Z,1.40
2023-02-19T17:48:54.165Z,1.17
2023-02-19T17:51:57.144Z,1.00
2023-02-19T17:55:00.988Z,1.17
2023-02-19T17:58:04.156Z,1.20
2023-02-19T18:01:07.068Z,1.10
2023-02-19T18:04:09.431Z,0.93
2023-02-19T18:07:12.304Z,1.05
2023-02-19T18:10:18.378Z,0.90
2023-02-19T18:13:21.059Z,1.00
2023-02-19T18:16:24.193Z,1.33
2023-02-19T18:19:26.484Z,1.60
2023-02-19T18:22:29.101Z,1.30
2023-02-19T18:25:31.905Z,1.15
2023-02-19T18:28:35.406Z,1.20
2023-02-19T18:31:38.021Z,2.00
2023-02-19T18:34:41.490Z,1.55
2023-02-19T18:37:46.559Z,1.60
2023-02-19T18:40:50.886Z,1.33
2023-02-19T18:43:53.888Z,1.65
2023-02-19T18:47:00.172Z,1.27
2023-02-19T18:50:02.720Z,1.37
2023-02-19T18:53:06.469Z,1.33
2023-02-19T18:56:09.820Z,1.40
2023-02-19T18:59:14.410Z,1.33
2023-02-19T19:02:18.066Z,1.37
2023-02-19T19:05:23.138Z,1.33
2023-02-19T19:08:27.463Z,1.20
2023-02-19T19:11:31.021Z,1.30
2023-02-19T19:14:34.043Z,1.33
2023-02-19T19:17:38.282Z,1.83
2023-02-19T19:20:41.214Z,1.65
2023-02-19T19:23:44.238Z,1.40
2023-02-19T19:26:47.704Z,1.45
2023-02-19T19:29:51.110Z,1.20
2023-02-19T19:32:54.057Z,1.30
2023-02-19T19:35:56.773Z,1.30
2023-02-19T19:38:59.838Z,1.12
2023-02-19T19:42:05.781Z,1.45
2023-02-19T19:45:11.126Z,1.58
2023-02-19T19:48:14.561Z,1.50
2023-02-19T19:51:18.214Z,1.50
2023-02-19T19:54:22.023Z,1.50
2023-02-19T19:57:24.795Z,1.42
2023-02-19T20:00:29.484Z,1.17
2023-02-19T20:03:33.784Z,1.48
2023-02-19T20:06:36.477Z,1.27
2023-02-19T20:09:39.427Z,1.75
2023-02-19T20:12:42.194Z,1.40
2023-02-19T20:15:44.800Z,1.60
2023-02-19T20:18:47.465Z,1.45
2023-02-19T20:21:54.005Z,1.60
2023-02-19T20:24:56.854Z,1.75
2023-02-19T20:27:59.755Z,1.60
2023-02-19T20:31:02.891Z,1.73
2023-02-19T20:34:07.222Z,1.45
2023-02-19T20:37:10.899Z,1.70
2023-02-19T20:40:14.799Z,1.90
2023-02-19T20:43:18.423Z,1.70
2023-02-19T20:46:21.315Z,1.67
2023-02-19T20:49:26.691Z,1.77
2023-02-19T20:52:29.613Z,1.50
2023-02-19T20:55:36.336Z,1.80
2023-02-19T20:58:43.614Z,1.33
2023-02-19T21:01:47.886Z,1.33
2023-02-19T21:04:50.894Z,1.30
2023-02-19T21:07:55.667Z,1.40
2023-02-19T21:10:58.884Z,1.50
2023-02-19T21:14:01.688Z,1.30
2023-02-19T21:17:04.652Z,1.73
2023-02-19T21:20:08.217Z,1.90
2023-02-19T21:23:10.741Z,1.60
2023-02-19T21:26:13.420Z,1.48
2023-02-19T21:29:19.340Z,1.50
2023-02-19T21:32:26.998Z,1.58
2023-02-19T21:35:29.479Z,1.42
2023-02-19T21:38:32.681Z,1.33
2023-02-19T21:41:34.838Z,1.20
2023-02-19T21:44:36.760Z,1.33
2023-02-19T21:47:39.170Z,1.65
2023-02-19T21:50:48.183Z,1.30
2023-02-19T21:53:50.326Z,1.30
2023-02-19T21:56:53.892Z,1.33
2023-02-19T21:59:55.630Z,1.30
2023-02-19T22:02:57.572Z,1.50
2023-02-19T22:06:02.331Z,1.60
2023-02-19T22:09:04.116Z,1.58
2023-02-19T22:12:05.910Z,1.20
2023-02-19T22:15:07.971Z,1.80
2023-02-19T22:18:09.632Z,1.30
2023-02-19T22:21:11.335Z,1.45
2023-02-19T22:24:18.482Z,1.05
2023-02-19T22:27:20.207Z,1.20
2023-02-19T22:30:22.194Z,1.33
2023-02-19T22:33:23.881Z,1.25
2023-02-19T22:36:28.447Z,1.20
2023-02-19T22:39:30.271Z,1.15
2023-02-19T22:42:31.963Z,1.10
2023-02-19T22:45:33.647Z,1.35
2023-02-19T22:48:35.304Z,1.20
2023-02-19T22:51:37.069Z,1.25
2023-02-19T22:54:39.491Z,1.10
2023-02-19T22:57:41.163Z,1.20
2023-02-19T23:00:42.822Z,1.20
2023-02-19T23:03:46.797Z,1.40
2023-02-19T23:06:48.660Z,1.10
2023-02-19T23:09:50.336Z,1.35
2023-02-19T23:12:51.990Z,1.35
2023-02-19T23:15:53.684Z,1.30
2023-02-19T23:18:55.594Z,1.30
2023-02-19T23:21:57.391Z,1.30
2023-02-19T23:24:59.026Z,1.20
2023-02-19T23:28:00.796Z,1.50
2023-02-19T23:31:02.660Z,1.23
2023-02-19T23:34:04.362Z,1.40
2023-02-19T23:37:06.729Z,1.45
2023-02-19T23:40:08.883Z,1.12
2023-02-19T23:43:10.533Z,1.33
2023-02-19T23:46:17.641Z,1.20
2023-02-19T23:49:19.797Z,1.40
2023-02-19T23:52:21.624Z,1.30
2023-02-19T23:55:23.401Z,1.45
2023-02-19T23:58:25.075Z,1.35
